createdAt,value
2017-07-30T00:00:02.456Z,97409.23
2017-07-30T00:02:29.890Z,97408.58
2017-07-30T00:04:57.314Z,97407.31
2017-07-30T00:07:24.786Z,97409.81
2017-07-30T00:09:52.214Z,97412.86
2017-07-30T00:12:19.676Z,97401.48
2017-07-30T00:14:47.127Z,97399.91
2017-07-30T00:17:14.576Z,97404.30
2017-07-30T00:19:41.987Z,97407.44
2017-07-30T00:22:09.423Z,97400.08
2017-07-30T00:24:36.853Z,97396.34
2017-07-30T00:27:04.270Z,97396.31
2017-07-30T00:29:31.694Z,97398.14
2017-07-30T00:31:59.275Z,97398.98
2017-07-30T00:34:26.684Z,97403.48
2017-07-30T00:36:54.132Z,97400.14
2017-07-30T00:39:21.559Z,97400.66
2017-07-30T00:41:49.022Z,97397.28
2017-07-30T00:44:16.495Z,97391.72
2017-07-30T00:46:43.947Z,97398.48
2017-07-30T00:49:11.354Z,97394.30
2017-07-30T00:51:38.828Z,97396.14
2017-07-30T00:54:06.312Z,97392.77
2017-07-30T00:56:34.725Z,97388.59
2017-07-30T00:59:02.146Z,97389.20
2017-07-30T01:01:29.562Z,97390.57
2017-07-30T01:03:56.991Z,97383.78
2017-07-30T01:06:24.440Z,97380.34
2017-07-30T01:08:51.844Z,97373.94
2017-07-30T01:11:19.280Z,97377.46
2017-07-30T01:13:46.745Z,97375.95
2017-07-30T01:16:14.146Z,97374.23
2017-07-30T01:18:41.595Z,97366.62
2017-07-30T01:21:09.004Z,97362.34
2017-07-30T01:23:36.419Z,97354.36
2017-07-30T01:26:03.868Z,97351.84
2017-07-30T01:28:32.012Z,97350.87
2017-07-30T01:30:59.463Z,97359.10
2017-07-30T01:33:26.889Z,97359.49
2017-07-30T01:35:54.631Z,97352.59
2017-07-30T01:38:22.067Z,97350.91
2017-07-30T01:40:49.508Z,97353.50
2017-07-30T01:43:17.145Z,97354.98
2017-07-30T01:45:44.574Z,97344.12
2017-07-30T01:48:11.979Z,97345.09
2017-07-30T01:50:39.402Z,97350.38
2017-07-30T01:53:06.814Z,97349.91
2017-07-30T01:55:34.240Z,97353.53
2017-07-30T01:58:01.688Z,97351.06
2017-07-30T02:00:29.211Z,97351.52
2017-07-30T02:02:56.639Z,97350.38
2017-07-30T02:05:24.058Z,97349.27
2017-07-30T02:07:51.499Z,97351.02
2017-07-30T02:10:18.906Z,97349.41
2017-07-30T02:12:46.319Z,97348.00
2017-07-30T02:15:13.847Z,97348.61
2017-07-30T02:17:41.431Z,97351.72
2017-07-30T02:20:08.926Z,97344.25
2017-07-30T02:22:36.310Z,97341.73
2017-07-30T02:25:03.836Z,97352.16
2017-07-30T02:27:31.251Z,97351.05
2017-07-30T02:29:58.664Z,97351.84
2017-07-30T02:32:26.095Z,97350.87
2017-07-30T02:34:53.567Z,97351.41
2017-07-30T02:37:21.116Z,97347.74
2017-07-30T02:39:48.541Z,97346.95
2017-07-30T02:42:15.960Z,97347.88
2017-07-30T02:44:43.403Z,97348.48
2017-07-30T02:47:10.859Z,97352.71
2017-07-30T02:49:38.302Z,97341.75
2017-07-30T02:52:05.735Z,97339.28
2017-07-30T02:54:33.278Z,97340.78
2017-07-30T02:57:00.683Z,97341.00
2017-07-30T02:59:28.114Z,97336.44
2017-07-30T03:01:55.538Z,97337.15
2017-07-30T03:04:22.942Z,97346.66
2017-07-30T03:06:50.342Z,97344.59
2017-07-30T03:09:17.775Z,97348.33
2017-07-30T03:11:45.186Z,97345.03
2017-07-30T03:14:12.632Z,97347.55
2017-07-30T03:16:40.055Z,97344.94
2017-07-30T03:19:07.509Z,97338.66
2017-07-30T03:21:34.948Z,97341.87
2017-07-30T03:24:02.371Z,97342.74
2017-07-30T03:26:30.114Z,97344.04
2017-07-30T03:28:57.528Z,97342.89
2017-07-30T03:31:24.962Z,97347.06
2017-07-30T03:33:52.999Z,97344.98
2017-07-30T03:36:20.424Z,97348.91
2017-07-30T03:38:47.891Z,97351.38
2017-07-30T03:41:15.296Z,97344.97
2017-07-30T03:43:42.703Z,97351.29
2017-07-30T03:46:10.144Z,97345.75
2017-07-30T03:48:37.552Z,97349.06
2017-07-30T03:51:04.991Z,97343.38
2017-07-30T03:53:32.535Z,97343.55
2017-07-30T03:56:00.123Z,97346.72
2017-07-30T03:58:27.872Z,97344.34
2017-07-30T04:00:55.287Z,97344.56
2017-07-30T04:03:22.707Z,97344.03
2017-07-30T04:05:50.188Z,97347.38
2017-07-30T04:08:17.631Z,97345.69
2017-07-30T04:10:45.024Z,97338.39
2017-07-30T04:13:12.458Z,97347.16
2017-07-30T04:15:39.876Z,97340.59
2017-07-30T04:18:07.297Z,97343.36
2017-07-30T04:20:34.828Z,97350.75
2017-07-30T04:23:02.221Z,97341.48
2017-07-30T04:25:29.671Z,97348.81
2017-07-30T04:27:57.110Z,97347.69
2017-07-30T04:30:24.611Z,97351.77
2017-07-30T04:32:52.060Z,97346.45
2017-07-30T04:35:19.580Z,97344.02
2017-07-30T04:37:47.016Z,97335.92
2017-07-30T04:40:14.450Z,97335.64
2017-07-30T04:42:41.862Z,97332.41
2017-07-30T04:45:09.311Z,97336.75
2017-07-30T04:47:36.715Z,97332.27
2017-07-30T04:50:04.239Z,97327.30
2017-07-30T04:52:31.691Z,97333.13
2017-07-30T04:54:59.136Z,97329.31
2017-07-30T04:57:27.031Z,97323.75
2017-07-30T04:59:54.496Z,97322.92
2017-07-30T05:02:21.931Z,97330.33
2017-07-30T05:04:49.393Z,97328.03
2017-07-30T05:07:16.795Z,97331.91
2017-07-30T05:09:44.227Z,97338.52
2017-07-30T05:12:11.654Z,97337.19
2017-07-30T05:14:39.142Z,97341.28
2017-07-30T05:17:06.553Z,97339.66
2017-07-30T05:19:33.993Z,97342.86
2017-07-30T05:22:01.407Z,97342.51
2017-07-30T05:24:28.814Z,97338.91
2017-07-30T05:26:56.261Z,97341.39
2017-07-30T05:29:23.676Z,97338.62
2017-07-30T05:31:51.104Z,97332.74
2017-07-30T05:36:52.259Z,97332.76
2017-07-30T05:39:19.693Z,97337.53
2017-07-30T05:41:47.112Z,97339.45
2017-07-30T05:44:14.552Z,97336.02
2017-07-30T05:46:41.976Z,97340.13
2017-07-30T05:49:09.388Z,97329.34
2017-07-30T05:51:36.916Z,97340.22
2017-07-30T05:54:04.440Z,97343.89
2017-07-30T05:56:32.031Z,97332.56
2017-07-30T05:58:59.432Z,97332.41
2017-07-30T06:01:26.848Z,97336.48
2017-07-30T06:03:54.274Z,97334.55
2017-07-30T06:06:21.682Z,97336.88
2017-07-30T06:08:49.202Z,97340.94
2017-07-30T06:11:16.635Z,97338.97
2017-07-30T06:13:44.058Z,97340.06
2017-07-30T06:16:11.511Z,97343.23
2017-07-30T06:18:38.916Z,97342.41
2017-07-30T06:21:06.355Z,97340.08
2017-07-30T06:23:33.782Z,97337.25
2017-07-30T06:26:02.192Z,97335.11
2017-07-30T06:28:29.628Z,97331.55
2017-07-30T06:30:57.036Z,97333.25
2017-07-30T06:33:24.474Z,97343.64
2017-07-30T06:35:51.877Z,97336.64
2017-07-30T06:38:19.332Z,97335.84
2017-07-30T06:40:46.769Z,97337.64
2017-07-30T06:43:14.170Z,97337.50
2017-07-30T06:45:41.636Z,97338.65
2017-07-30T06:48:09.115Z,97342.60
2017-07-30T06:50:36.504Z,97340.44
2017-07-30T06:53:03.946Z,97344.93
2017-07-30T06:55:31.420Z,97352.77
2017-07-30T06:57:58.865Z,97346.13
2017-07-30T07:00:26.286Z,97349.70
2017-07-30T07:02:53.728Z,97350.68
2017-07-30T07:05:21.151Z,97353.66
2017-07-30T07:07:48.546Z,97353.89
2017-07-30T07:10:15.990Z,97361.95
2017-07-30T07:12:43.403Z,97358.62
2017-07-30T07:15:10.859Z,97355.70
2017-07-30T07:17:38.319Z,97356.69
2017-07-30T07:20:05.715Z,97355.16
2017-07-30T07:22:33.168Z,97358.48
2017-07-30T07:25:00.603Z,97360.27
2017-07-30T07:27:28.471Z,97365.77
2017-07-30T07:29:55.880Z,97364.41
2017-07-30T07:32:23.309Z,97367.73
2017-07-30T07:34:50.866Z,97361.45
2017-07-30T07:37:18.294Z,97364.77
2017-07-30T07:39:45.726Z,97366.18
2017-07-30T07:42:13.182Z,97361.07
2017-07-30T07:44:40.763Z,97359.83
2017-07-30T07:47:08.270Z,97367.11
2017-07-30T07:49:35.713Z,97362.97
2017-07-30T07:52:03.179Z,97361.19
2017-07-30T07:54:30.636Z,97364.30
2017-07-30T07:56:58.036Z,97362.32
2017-07-30T07:59:25.446Z,97362.13
2017-07-30T08:01:52.895Z,97370.76
2017-07-30T08:04:20.360Z,97366.75
2017-07-30T08:06:47.795Z,97367.14
2017-07-30T08:09:15.243Z,97367.67
2017-07-30T08:11:42.683Z,97372.19
2017-07-30T08:14:10.122Z,97372.58
2017-07-30T08:16:37.520Z,97371.73
2017-07-30T08:19:04.965Z,97378.78
2017-07-30T08:21:32.409Z,97378.72
2017-07-30T08:23:59.819Z,97381.19
2017-07-30T08:26:27.262Z,97384.64
2017-07-30T08:28:54.747Z,97383.02
2017-07-30T08:31:22.222Z,97384.89
2017-07-30T08:33:49.655Z,97386.95
2017-07-30T08:36:17.088Z,97386.23
2017-07-30T08:38:44.491Z,97377.16
2017-07-30T08:41:11.931Z,97379.65
2017-07-30T08:43:39.363Z,97386.19
2017-07-30T08:46:06.790Z,97385.43
2017-07-30T08:48:34.207Z,97382.17
2017-07-30T08:51:01.652Z,97385.94
2017-07-30T08:53:29.087Z,97387.39
2017-07-30T08:55:56.498Z,97385.88
2017-07-30T08:58:23.963Z,97392.41
2017-07-30T09:00:51.391Z,97391.63
2017-07-30T09:03:18.832Z,97384.88
2017-07-30T09:05:46.357Z,97380.61
2017-07-30T09:08:13.755Z,97384.25
2017-07-30T09:10:41.223Z,97384.62
2017-07-30T09:13:08.616Z,97381.92
2017-07-30T09:15:36.095Z,97377.99
2017-07-30T09:18:03.519Z,97380.58
2017-07-30T09:20:31.040Z,97377.54
2017-07-30T09:22:58.441Z,97373.53
2017-07-30T09:25:25.861Z,97373.94
2017-07-30T09:27:53.276Z,97360.45
2017-07-30T09:30:20.700Z,97367.27
2017-07-30T09:32:48.117Z,97368.59
2017-07-30T09:35:15.557Z,97367.97
2017-07-30T09:37:43.004Z,97367.58
2017-07-30T09:40:10.439Z,97364.50
2017-07-30T09:42:37.879Z,97361.38
2017-07-30T09:45:05.360Z,97366.14
2017-07-30T09:47:32.799Z,97368.30
2017-07-30T09:50:00.252Z,97374.38
2017-07-30T09:52:27.663Z,97363.22
2017-07-30T09:54:55.120Z,97376.77
2017-07-30T09:57:22.555Z,97371.05
2017-07-30T09:59:49.987Z,97379.91
2017-07-30T10:02:17.392Z,97371.25
2017-07-30T10:04:44.885Z,97378.69
2017-07-30T10:07:12.375Z,97380.36
2017-07-30T10:09:39.865Z,97369.98
2017-07-30T10:12:07.307Z,97372.86
2017-07-30T10:14:34.743Z,97367.67
2017-07-30T10:17:02.171Z,97362.13
2017-07-30T10:19:29.612Z,97361.27
2017-07-30T10:21:57.103Z,97349.42
2017-07-30T10:24:24.774Z,97354.83
2017-07-30T10:26:52.240Z,97352.30
2017-07-30T10:29:19.681Z,97346.09
2017-07-30T10:31:47.151Z,97346.88
2017-07-30T10:34:14.615Z,97343.84
2017-07-30T10:36:42.152Z,97345.34
2017-07-30T10:39:09.557Z,97338.46
2017-07-30T10:41:36.996Z,97338.97
2017-07-30T10:44:04.520Z,97344.17
2017-07-30T10:46:31.952Z,97343.77
2017-07-30T10:48:59.391Z,97339.72
2017-07-30T10:51:26.843Z,97330.50
2017-07-30T10:53:54.322Z,97332.28
2017-07-30T10:56:21.756Z,97330.58
2017-07-30T10:58:49.163Z,97329.50
2017-07-30T11:01:16.656Z,97331.18
2017-07-30T11:03:44.088Z,97324.27
2017-07-30T11:06:11.496Z,97329.23
2017-07-30T11:08:38.935Z,97319.38
2017-07-30T11:11:06.362Z,97316.22
2017-07-30T11:13:33.755Z,97318.84
2017-07-30T11:16:01.172Z,97328.67
2017-07-30T11:18:28.604Z,97317.48
2017-07-30T11:20:56.035Z,97324.39
2017-07-30T11:23:23.475Z,97318.66
2017-07-30T11:25:50.914Z,97317.00
2017-07-30T11:28:18.332Z,97318.04
2017-07-30T11:30:45.816Z,97304.94
2017-07-30T11:33:13.272Z,97309.56
2017-07-30T11:35:40.941Z,97310.23
2017-07-30T11:38:08.405Z,97310.73
2017-07-30T11:40:35.869Z,97311.70
2017-07-30T11:43:03.364Z,97317.06
2017-07-30T11:45:30.841Z,97313.33
2017-07-30T11:47:58.252Z,97315.59
2017-07-30T11:50:25.692Z,97307.41
2017-07-30T11:52:53.129Z,97308.20
2017-07-30T11:55:20.689Z,97305.64
2017-07-30T11:57:48.188Z,97305.03
2017-07-30T12:00:15.666Z,97304.31
2017-07-30T12:02:43.094Z,97304.95
2017-07-30T12:05:10.667Z,97309.56
2017-07-30T12:07:38.102Z,97307.50
2017-07-30T12:10:05.572Z,97308.39
2017-07-30T12:12:33.018Z,97318.59
2017-07-30T12:15:00.434Z,97316.78
2017-07-30T12:17:27.863Z,97317.72
2017-07-30T12:19:55.910Z,97318.98
2017-07-30T12:22:23.311Z,97319.03
2017-07-30T12:24:50.718Z,97312.64
2017-07-30T12:27:18.283Z,97319.43
2017-07-30T12:29:45.740Z,97316.64
2017-07-30T12:32:13.251Z,97324.02
2017-07-30T12:34:40.680Z,97322.44
2017-07-30T12:37:08.187Z,97329.69
2017-07-30T12:39:35.630Z,97332.53
2017-07-30T12:42:03.063Z,97341.28
2017-07-30T12:44:30.580Z,97335.97
2017-07-30T12:46:58.118Z,97334.50
2017-07-30T12:49:25.540Z,97331.84
2017-07-30T12:51:53.053Z,97329.53
2017-07-30T12:54:20.447Z,97321.54
2017-07-30T12:56:47.889Z,97311.61
2017-07-30T12:59:15.313Z,97308.13
2017-07-30T13:01:42.745Z,97308.70
2017-07-30T13:04:10.175Z,97304.05
2017-07-30T13:06:37.577Z,97311.44
2017-07-30T13:09:05.015Z,97329.03
2017-07-30T13:11:32.438Z,97326.39
2017-07-30T13:13:59.924Z,97333.55
2017-07-30T13:16:27.368Z,97332.21
2017-07-30T13:18:54.779Z,97341.21
2017-07-30T13:21:22.228Z,97347.47
2017-07-30T13:23:49.748Z,97345.11
2017-07-30T13:26:17.264Z,97343.48
2017-07-30T13:28:44.671Z,97330.50
2017-07-30T13:31:12.128Z,97326.07
2017-07-30T13:33:39.595Z,97321.03
2017-07-30T13:36:07.027Z,97326.21
2017-07-30T13:38:34.451Z,97318.48
2017-07-30T13:41:01.886Z,97322.34
2017-07-30T13:43:29.303Z,97323.94
2017-07-30T13:45:56.735Z,97329.98
2017-07-30T13:48:24.144Z,97332.48
2017-07-30T13:50:51.542Z,97327.64
2017-07-30T13:53:19.051Z,97315.08
2017-07-30T13:55:46.472Z,97314.26
2017-07-30T13:58:13.997Z,97320.48
2017-07-30T14:00:41.445Z,97320.75
2017-07-30T14:03:08.881Z,97322.52
2017-07-30T14:05:36.326Z,97326.11
2017-07-30T14:08:03.792Z,97319.98
2017-07-30T14:10:31.239Z,97330.36
2017-07-30T14:12:58.724Z,97326.70
2017-07-30T14:15:26.164Z,97324.44
2017-07-30T14:17:53.601Z,97328.86
2017-07-30T14:20:21.047Z,97323.04
2017-07-30T14:22:48.478Z,97323.83
2017-07-30T14:25:15.915Z,97332.00
2017-07-30T14:27:43.319Z,97327.70
2017-07-30T14:30:10.791Z,97322.13
2017-07-30T14:32:38.194Z,97323.09
2017-07-30T14:35:05.623Z,97333.46
2017-07-30T14:37:33.046Z,97338.52
2017-07-30T14:40:00.459Z,97353.11
2017-07-30T14:42:27.932Z,97358.50
2017-07-30T14:44:55.457Z,97351.42
2017-07-30T14:47:22.895Z,97350.67
2017-07-30T14:49:50.343Z,97358.03
2017-07-30T14:52:18.312Z,97375.73
2017-07-30T14:54:45.712Z,97364.59
2017-07-30T14:57:13.211Z,97359.17
2017-07-30T14:59:40.639Z,97357.27
2017-07-30T15:02:08.093Z,97368.92
2017-07-30T15:04:35.523Z,97377.46
2017-07-30T15:07:02.926Z,97388.10
2017-07-30T15:09:30.362Z,97389.88
2017-07-30T15:11:57.775Z,97383.22
2017-07-30T15:14:25.187Z,97379.00
2017-07-30T15:16:52.625Z,97376.67
2017-07-30T15:19:20.038Z,97385.69
2017-07-30T15:21:47.479Z,97389.66
2017-07-30T15:24:15.005Z,97394.14
2017-07-30T15:26:42.407Z,97396.56
2017-07-30T15:29:09.844Z,97396.73
2017-07-30T15:31:37.258Z,97400.63
2017-07-30T15:34:04.692Z,97401.83
2017-07-30T15:36:32.103Z,97408.75
2017-07-30T15:39:00.115Z,97404.50
2017-07-30T15:41:27.546Z,97395.81
2017-07-30T15:43:54.963Z,97396.88
2017-07-30T15:46:22.397Z,97398.03
2017-07-30T15:48:49.825Z,97396.55
2017-07-30T15:51:17.238Z,97391.64
2017-07-30T15:53:44.645Z,97388.69
2017-07-30T15:56:12.085Z,97390.81
2017-07-30T15:58:40.403Z,97386.33
2017-07-30T16:01:07.811Z,97384.49
2017-07-30T16:03:35.241Z,97381.84
2017-07-30T16:06:02.659Z,97387.81
2017-07-30T16:08:30.059Z,97387.03
2017-07-30T16:10:57.496Z,97392.50
2017-07-30T16:13:24.974Z,97395.72
2017-07-30T16:15:52.426Z,97403.46
2017-07-30T16:18:19.862Z,97397.89
2017-07-30T16:20:47.357Z,97404.03
2017-07-30T16:23:14.777Z,97403.73
2017-07-30T16:25:42.210Z,97402.98
2017-07-30T16:28:09.631Z,97399.55
2017-07-30T16:30:37.057Z,97398.16
2017-07-30T16:33:04.499Z,97401.41
2017-07-30T16:35:31.949Z,97398.44
2017-07-30T16:37:59.380Z,97397.92
2017-07-30T16:40:26.782Z,97407.74
2017-07-30T16:42:54.187Z,97405.60
2017-07-30T16:45:21.702Z,97397.67
2017-07-30T16:47:49.102Z,97392.11
2017-07-30T16:50:16.517Z,97389.10
2017-07-30T16:52:43.947Z,97389.78
2017-07-30T16:55:11.388Z,97388.63
2017-07-30T16:57:38.811Z,97388.71
2017-07-30T17:00:06.248Z,97382.70
2017-07-30T17:02:33.647Z,97375.44
2017-07-30T17:05:01.092Z,97387.88
2017-07-30T17:07:28.577Z,97384.92
2017-07-30T17:09:56.062Z,97391.22
2017-07-30T17:12:23.498Z,97376.58
2017-07-30T17:14:50.907Z,97383.02
2017-07-30T17:17:18.934Z,97372.48
2017-07-30T17:19:46.338Z,97370.19
2017-07-30T17:22:13.743Z,97372.22
2017-07-30T17:24:41.171Z,97365.53
2017-07-30T17:27:08.600Z,97366.53
2017-07-30T17:29:36.018Z,97360.61
2017-07-30T17:32:03.472Z,97365.61
2017-07-30T17:34:30.898Z,97369.73
2017-07-30T17:36:59.075Z,97374.50
2017-07-30T17:39:26.470Z,97376.45
2017-07-30T17:41:54.018Z,97379.58
2017-07-30T17:44:21.443Z,97362.77
2017-07-30T17:46:48.851Z,97370.28
2017-07-30T17:49:16.273Z,97363.94
2017-07-30T17:51:43.721Z,97376.71
2017-07-30T17:54:11.147Z,97378.71
2017-07-30T17:56:38.550Z,97371.23
2017-07-30T17:59:06.545Z,97372.16
2017-07-30T18:01:34.016Z,97374.01
2017-07-30T18:04:01.728Z,97369.12
2017-07-30T18:06:29.159Z,97374.00
2017-07-30T18:08:56.595Z,97380.10
2017-07-30T18:11:24.033Z,97376.16
2017-07-30T18:13:51.495Z,97356.65
2017-07-30T18:16:18.903Z,97357.66
2017-07-30T18:18:46.306Z,97354.47
2017-07-30T18:21:13.755Z,97350.02
2017-07-30T18:23:41.235Z,97363.67
2017-07-30T18:26:08.662Z,97377.34
2017-07-30T18:28:36.083Z,97377.81
2017-07-30T18:31:03.493Z,97374.89
2017-07-30T18:33:30.939Z,97372.14
2017-07-30T18:35:58.338Z,97354.75
2017-07-30T18:38:25.801Z,97344.23
2017-07-30T18:40:53.240Z,97354.53
2017-07-30T18:43:20.704Z,97373.09
2017-07-30T18:45:48.132Z,97424.51
2017-07-30T18:48:15.557Z,97441.89
2017-07-30T18:50:43.064Z,97451.80
2017-07-30T18:53:10.502Z,97464.41
2017-07-30T18:55:37.954Z,97475.47
2017-07-30T18:58:05.728Z,97479.03
2017-07-30T19:00:33.147Z,97480.74
2017-07-30T19:03:00.616Z,97471.45
2017-07-30T19:05:29.006Z,97460.75
2017-07-30T19:07:56.423Z,97474.41
2017-07-30T19:10:23.877Z,97467.45
2017-07-30T19:12:51.296Z,97457.94
2017-07-30T19:15:18.753Z,97475.61
2017-07-30T19:17:46.199Z,97481.14
2017-07-30T19:20:13.649Z,97476.13
2017-07-30T19:22:41.109Z,97479.41
2017-07-30T19:25:08.552Z,97485.56
2017-07-30T19:27:35.992Z,97487.00
2017-07-30T19:30:03.508Z,97489.77
2017-07-30T19:32:31.026Z,97500.80
2017-07-30T19:34:58.525Z,97507.02
2017-07-30T19:37:26.060Z,97511.63
2017-07-30T19:39:53.469Z,97506.31
2017-07-30T19:42:20.912Z,97510.84
2017-07-30T19:44:48.369Z,97503.23
2017-07-30T19:47:15.924Z,97501.72
2017-07-30T19:49:43.414Z,97507.02
2017-07-30T19:52:10.889Z,97504.94
2017-07-30T19:54:38.389Z,97516.68
2017-07-30T19:57:05.799Z,97526.61
2017-07-30T19:59:33.227Z,97529.16
2017-07-30T20:02:00.655Z,97527.38
2017-07-30T20:04:28.100Z,97526.76
2017-07-30T20:06:55.519Z,97529.86
2017-07-30T20:09:22.971Z,97537.92
2017-07-30T20:11:50.395Z,97539.72
2017-07-30T20:14:17.856Z,97542.47
2017-07-30T20:16:45.305Z,97533.44
2017-07-30T20:19:12.715Z,97536.77
2017-07-30T20:21:40.156Z,97538.73
2017-07-30T20:24:07.813Z,97550.33
2017-07-30T20:26:35.274Z,97545.41
2017-07-30T20:29:02.699Z,97547.55
2017-07-30T20:31:30.125Z,97545.88
2017-07-30T20:33:57.571Z,97546.42
2017-07-30T20:36:24.983Z,97535.81
2017-07-30T20:38:52.423Z,97542.66
2017-07-30T20:41:19.863Z,97546.13
2017-07-30T20:43:47.279Z,97551.80
2017-07-30T20:46:14.728Z,97551.62
2017-07-30T20:48:42.159Z,97556.97
2017-07-30T20:51:09.573Z,97549.82
2017-07-30T20:53:37.023Z,97552.08
2017-07-30T20:56:04.464Z,97548.88
2017-07-30T20:58:31.876Z,97553.66
2017-07-30T21:00:59.272Z,97552.77
2017-07-30T21:03:26.773Z,97549.45
2017-07-30T21:05:54.171Z,97550.44
2017-07-30T21:08:21.583Z,97553.59
2017-07-30T21:10:49.028Z,97550.69
2017-07-30T21:13:16.455Z,97552.93
2017-07-30T21:15:43.860Z,97558.65
2017-07-30T21:18:11.307Z,97557.52
2017-07-30T21:20:38.745Z,97554.19
2017-07-30T21:23:06.188Z,97560.03
2017-07-30T21:28:07.456Z,97560.84
2017-07-30T21:30:34.875Z,97561.21
2017-07-30T21:33:02.282Z,97560.22
2017-07-30T21:35:29.720Z,97558.45
2017-07-30T21:37:57.123Z,97557.66
2017-07-30T21:40:24.536Z,97542.18
2017-07-30T21:42:51.964Z,97534.33
2017-07-30T21:45:19.383Z,97528.27
2017-07-30T21:47:46.837Z,97538.08
2017-07-30T21:50:14.243Z,97546.11
2017-07-30T21:52:41.675Z,97553.43
2017-07-30T21:55:09.119Z,97560.08
2017-07-30T21:57:36.575Z,97564.97
2017-07-30T22:00:04.051Z,97572.84
2017-07-30T22:02:31.508Z,97572.55
2017-07-30T22:04:58.937Z,97567.44
2017-07-30T22:07:26.375Z,97542.25
2017-07-30T22:09:53.774Z,97509.44
2017-07-30T22:12:21.221Z,97431.38
2017-07-30T22:14:48.687Z,97416.67
2017-07-30T22:17:16.081Z,97468.55
2017-07-30T22:19:43.648Z,97504.39
2017-07-30T22:22:11.052Z,97517.84
2017-07-30T22:24:38.495Z,97513.08
2017-07-30T22:27:05.949Z,97501.27
2017-07-30T22:29:33.350Z,97514.16
2017-07-30T22:32:00.782Z,97529.88
2017-07-30T22:34:28.267Z,97528.45
2017-07-30T22:36:55.725Z,97520.42
2017-07-30T22:39:23.774Z,97526.71
2017-07-30T22:41:51.226Z,97527.00
2017-07-30T22:44:18.652Z,97534.51
2017-07-30T22:46:46.072Z,97541.55
2017-07-30T22:49:13.602Z,97548.98
2017-07-30T22:51:41.010Z,97548.53
2017-07-30T22:54:08.431Z,97543.19
2017-07-30T22:56:35.863Z,97537.42
2017-07-30T22:59:03.263Z,97525.98
2017-07-30T23:01:30.791Z,97512.33
2017-07-30T23:03:58.238Z,97504.91
2017-07-30T23:06:25.635Z,97510.30
2017-07-30T23:08:53.034Z,97516.34
2017-07-30T23:11:20.474Z,97516.58
2017-07-30T23:13:47.920Z,97518.13
2017-07-30T23:16:15.431Z,97519.37
2017-07-30T23:18:42.954Z,97522.63
2017-07-30T23:21:10.387Z,97533.06
2017-07-30T23:23:37.872Z,97533.50
2017-07-30T23:26:05.315Z,97533.98
2017-07-30T23:28:32.717Z,97534.11
2017-07-30T23:31:00.133Z,97545.48
2017-07-30T23:33:27.619Z,97557.39
2017-07-30T23:35:55.107Z,97563.31
2017-07-30T23:38:22.547Z,97555.22
2017-07-30T23:40:49.955Z,97559.11
2017-07-30T23:43:17.362Z,97554.31
2017-07-30T23:45:44.794Z,97541.35
2017-07-30T23:48:12.192Z,97548.35
2017-07-30T23:50:39.691Z,97570.86
2017-07-30T23:53:07.177Z,97571.59
2017-07-30T23:55:34.622Z,97550.84
2017-07-30T23:58:02.037Z,97556.63
